createdAt,value
2017-06-21T00:00:43.917Z,78.50
2017-06-21T00:03:11.458Z,78.80
2017-06-21T00:05:38.938Z,79.30
2017-06-21T00:08:07.187Z,78.80
2017-06-21T00:10:34.664Z,78.80
2017-06-21T00:13:02.123Z,79.70
2017-06-21T00:15:30.374Z,80.50
2017-06-21T00:17:57.838Z,80.50
2017-06-21T00:20:25.391Z,80.80
2017-06-21T00:22:52.855Z,80.90
2017-06-21T00:25:20.314Z,81.60
2017-06-21T00:27:47.867Z,83.10
2017-06-21T00:30:15.426Z,83.60
2017-06-21T00:32:42.894Z,84.10
2017-06-21T00:35:11.150Z,84.40
2017-06-21T00:37:38.614Z,84.80
2017-06-21T00:40:06.170Z,85.10
2017-06-21T00:42:33.727Z,85.30
2017-06-21T00:45:01.186Z,85.60
2017-06-21T00:47:28.739Z,85.80
2017-06-21T00:49:56.195Z,85.60
2017-06-21T00:52:23.651Z,86.20
2017-06-21T00:54:51.114Z,86.40
2017-06-21T00:57:18.671Z,86.30
2017-06-21T00:59:46.230Z,86.70
2017-06-21T01:02:13.700Z,86.10
2017-06-21T01:04:41.969Z,87.70
2017-06-21T01:07:09.431Z,87.60
2017-06-21T01:09:37.696Z,87.40
2017-06-21T01:12:05.254Z,87.20
2017-06-21T01:14:32.734Z,88.10
2017-06-21T01:17:00.962Z,88.00
2017-06-21T01:19:28.422Z,87.90
2017-06-21T01:21:55.895Z,88.90
2017-06-21T01:24:23.355Z,89.80
2017-06-21T01:26:50.817Z,90.10
2017-06-21T01:29:18.278Z,90.10
2017-06-21T01:31:45.743Z,90.00
2017-06-21T01:34:13.994Z,90.00
2017-06-21T01:36:41.554Z,90.00
2017-06-21T01:39:09.114Z,89.40
2017-06-21T01:41:36.586Z,89.20
2017-06-21T01:44:04.811Z,89.10
2017-06-21T01:46:32.285Z,89.00
2017-06-21T01:48:59.742Z,88.70
2017-06-21T01:51:27.215Z,88.20
2017-06-21T01:53:54.679Z,89.10
2017-06-21T01:56:22.934Z,89.60
2017-06-21T01:58:50.407Z,89.40
2017-06-21T02:01:17.867Z,90.00
2017-06-21T02:03:46.103Z,90.10
2017-06-21T02:06:13.567Z,90.00
2017-06-21T02:08:41.147Z,90.00
2017-06-21T02:11:08.602Z,90.00
2017-06-21T02:13:36.155Z,90.60
2017-06-21T02:16:03.715Z,90.40
2017-06-21T02:18:31.183Z,90.40
2017-06-21T02:20:58.643Z,90.50
2017-06-21T02:23:26.867Z,91.10
2017-06-21T02:25:54.368Z,90.70
2017-06-21T02:28:21.928Z,90.70
2017-06-21T02:30:49.484Z,90.60
2017-06-21T02:33:17.039Z,90.90
2017-06-21T02:35:44.604Z,90.80
2017-06-21T02:38:12.166Z,90.90
2017-06-21T02:40:39.633Z,91.30
2017-06-21T02:43:07.892Z,91.50
2017-06-21T02:45:35.362Z,91.50
2017-06-21T02:48:03.591Z,92.10
2017-06-21T02:50:31.175Z,91.70
2017-06-21T02:52:58.635Z,91.70
2017-06-21T02:55:26.099Z,91.60
2017-06-21T02:57:53.572Z,91.60
2017-06-21T03:00:21.823Z,92.10
2017-06-21T03:02:49.286Z,92.10
2017-06-21T03:05:16.747Z,92.30
2017-06-21T03:07:45.011Z,92.10
2017-06-21T03:10:12.473Z,92.10
2017-06-21T03:12:39.941Z,92.00
2017-06-21T03:15:20.078Z,91.80
2017-06-21T03:17:47.636Z,91.80
2017-06-21T03:20:15.186Z,92.10
2017-06-21T03:22:42.742Z,92.30
2017-06-21T03:25:10.219Z,92.30
2017-06-21T03:27:38.450Z,91.80
2017-06-21T03:30:05.923Z,91.70
2017-06-21T03:32:33.385Z,91.50
2017-06-21T03:35:00.956Z,91.40
2017-06-21T03:37:29.598Z,91.30
2017-06-21T03:39:57.063Z,91.00
2017-06-21T03:42:24.519Z,90.90
2017-06-21T03:44:52.007Z,90.80
2017-06-21T03:47:19.568Z,90.90
2017-06-21T03:49:47.043Z,91.20
2017-06-21T03:52:14.595Z,90.80
2017-06-21T03:54:42.858Z,90.90
2017-06-21T03:57:10.409Z,90.50
2017-06-21T03:59:37.873Z,90.30
2017-06-21T04:02:05.339Z,90.10
2017-06-21T04:04:33.574Z,89.80
2017-06-21T04:07:01.039Z,89.70
2017-06-21T04:09:28.495Z,89.00
2017-06-21T04:11:55.962Z,88.20
2017-06-21T04:14:23.534Z,87.90
2017-06-21T04:16:51.095Z,87.50
2017-06-21T04:19:18.645Z,86.50
2017-06-21T04:21:46.207Z,85.50
2017-06-21T04:24:13.662Z,84.60
2017-06-21T04:26:41.118Z,80.00
2017-06-21T04:29:08.678Z,72.70
2017-06-21T07:32:36.713Z,57.30
2017-06-21T07:35:04.973Z,56.80
2017-06-21T07:37:32.522Z,56.70
2017-06-21T07:40:00.092Z,57.10
2017-06-21T07:42:27.560Z,56.60
2017-06-21T07:44:55.821Z,56.00
2017-06-21T07:47:23.288Z,56.00
2017-06-21T07:49:51.542Z,56.90
2017-06-21T07:52:19.003Z,57.10
2017-06-21T07:54:46.555Z,56.50
2017-06-21T07:57:14.119Z,56.90
2017-06-21T07:59:41.580Z,55.90
2017-06-21T08:02:09.050Z,55.60
2017-06-21T08:04:36.592Z,55.80
2017-06-21T08:07:04.050Z,56.10
2017-06-21T08:09:31.607Z,56.10
2017-06-21T08:11:59.074Z,56.20
2017-06-21T08:14:26.540Z,56.10
2017-06-21T08:16:54.774Z,56.90
2017-06-21T08:19:22.251Z,56.80
2017-06-21T08:21:49.807Z,56.80
2017-06-21T08:24:17.271Z,56.50
2017-06-21T08:26:44.827Z,56.10
2017-06-21T08:29:12.290Z,56.20
2017-06-21T08:31:39.838Z,55.60
2017-06-21T08:34:07.294Z,55.00
2017-06-21T08:36:34.759Z,56.00
2017-06-21T08:39:02.222Z,56.00
2017-06-21T08:41:29.682Z,55.60
2017-06-21T08:43:57.938Z,57.30
2017-06-21T08:46:25.398Z,57.20
2017-06-21T08:48:52.954Z,56.40
2017-06-21T08:51:20.415Z,56.60
2017-06-21T08:53:47.974Z,55.90
2017-06-21T08:56:15.430Z,56.40
2017-06-21T08:58:42.890Z,54.80
2017-06-21T09:01:10.354Z,56.10
2017-06-21T09:03:38.622Z,54.30
2017-06-21T09:06:06.083Z,54.30
2017-06-21T09:08:33.635Z,54.70
2017-06-21T09:11:01.190Z,54.00
2017-06-21T09:13:28.660Z,53.30
2017-06-21T09:15:56.223Z,53.90
2017-06-21T09:18:23.671Z,54.40
2017-06-21T09:20:51.214Z,54.30
2017-06-21T09:23:18.683Z,54.60
2017-06-21T09:25:46.235Z,54.80
2017-06-21T09:28:13.700Z,53.20
2017-06-21T09:30:41.162Z,53.00
2017-06-21T09:33:09.417Z,53.70
2017-06-21T09:35:36.974Z,53.10
2017-06-21T09:38:04.434Z,53.30
2017-06-21T09:40:31.991Z,53.10
2017-06-21T09:42:59.458Z,52.90
2017-06-21T09:45:26.930Z,54.00
2017-06-21T09:47:55.163Z,52.70
2017-06-21T09:50:22.627Z,52.70
2017-06-21T09:52:50.099Z,51.90
2017-06-21T09:55:17.652Z,51.50
2017-06-21T09:57:45.211Z,51.80
2017-06-21T10:00:12.676Z,51.90
2017-06-21T10:02:40.222Z,50.60
2017-06-21T10:05:07.783Z,50.00
2017-06-21T10:07:35.247Z,49.70
2017-06-21T10:10:02.799Z,49.40
2017-06-21T10:12:30.258Z,49.70
2017-06-21T10:14:57.725Z,49.20
2017-06-21T10:17:25.190Z,49.80
2017-06-21T10:19:53.442Z,48.60
2017-06-21T10:22:20.903Z,48.50
2017-06-21T10:24:48.462Z,47.80
2017-06-21T10:27:15.950Z,47.60
2017-06-21T10:29:43.398Z,48.00
2017-06-21T10:32:11.643Z,48.40
2017-06-21T10:34:39.098Z,48.30
2017-06-21T10:37:06.558Z,49.30
2017-06-21T10:39:34.113Z,48.00
2017-06-21T10:42:01.569Z,48.40
2017-06-21T10:44:29.022Z,47.60
2017-06-21T10:46:56.482Z,47.80
2017-06-21T10:49:23.940Z,47.10
2017-06-21T10:51:51.395Z,47.70
2017-06-21T10:54:18.863Z,47.50
2017-06-21T10:56:46.406Z,46.60
2017-06-21T10:59:13.892Z,45.90
2017-06-21T11:01:42.115Z,45.90
2017-06-21T11:04:09.590Z,46.00
2017-06-21T11:06:37.145Z,45.60
2017-06-21T11:09:04.598Z,45.30
2017-06-21T11:11:32.162Z,46.00
2017-06-21T11:13:59.613Z,44.50
2017-06-21T11:16:27.067Z,47.10
2017-06-21T11:18:54.523Z,45.30
2017-06-21T11:21:22.096Z,46.40
2017-06-21T11:23:49.539Z,46.10
2017-06-21T11:26:17.002Z,44.70
2017-06-21T11:28:44.457Z,44.00
2017-06-21T11:31:11.924Z,43.90
2017-06-21T11:33:39.382Z,45.10
2017-06-21T11:36:06.846Z,45.20
2017-06-21T11:38:34.298Z,46.50
2017-06-21T11:41:01.754Z,43.90
2017-06-21T11:43:29.306Z,44.60
2017-06-21T11:45:56.763Z,44.60
2017-06-21T11:48:24.226Z,43.90
2017-06-21T11:50:51.770Z,46.00
2017-06-21T11:53:19.242Z,45.60
2017-06-21T11:55:46.699Z,45.50
2017-06-21T11:58:14.961Z,44.40
2017-06-21T12:00:42.534Z,44.50
2017-06-21T12:03:10.803Z,44.60
2017-06-21T12:05:38.254Z,44.70
2017-06-21T12:08:05.812Z,44.40
2017-06-21T12:10:33.265Z,45.60
2017-06-21T12:13:00.822Z,44.30
2017-06-21T12:15:28.290Z,44.10
2017-06-21T12:17:55.839Z,43.50
2017-06-21T12:20:23.306Z,42.90
2017-06-21T12:22:50.863Z,43.30
2017-06-21T12:25:18.322Z,43.40
2017-06-21T12:27:46.587Z,43.40
2017-06-21T12:30:14.043Z,43.10
2017-06-21T12:32:41.506Z,44.00
2017-06-21T12:35:08.976Z,43.80
2017-06-21T12:37:37.230Z,44.00
2017-06-21T12:40:04.687Z,43.60
2017-06-21T12:42:32.246Z,43.80
2017-06-21T12:44:59.701Z,42.80
2017-06-21T12:47:27.163Z,43.60
2017-06-21T12:49:54.716Z,43.80
2017-06-21T12:52:22.182Z,43.70
2017-06-21T12:54:49.637Z,43.70
2017-06-21T12:57:17.094Z,43.80
2017-06-21T12:59:44.631Z,44.00
2017-06-21T13:02:12.164Z,45.10
2017-06-21T13:04:39.650Z,43.00
2017-06-21T13:07:07.206Z,44.50
2017-06-21T13:09:34.775Z,42.70
2017-06-21T13:12:02.231Z,41.30
2017-06-21T13:14:29.690Z,42.50
2017-06-21T13:16:57.238Z,42.40
2017-06-21T13:19:24.802Z,42.60
2017-06-21T13:21:52.251Z,42.60
2017-06-21T13:24:19.821Z,42.90
2017-06-21T13:26:47.274Z,42.60
2017-06-21T13:29:14.738Z,42.60
2017-06-21T13:31:42.282Z,41.90
2017-06-21T13:34:09.757Z,41.70
2017-06-21T13:36:38.024Z,40.30
2017-06-21T13:39:05.470Z,40.30
2017-06-21T13:41:33.040Z,40.70
2017-06-21T13:44:00.590Z,39.00
2017-06-21T13:46:28.155Z,38.80
2017-06-21T13:48:55.602Z,39.00
2017-06-21T13:51:23.063Z,37.50
2017-06-21T13:53:50.518Z,39.50
2017-06-21T13:56:17.974Z,39.00
2017-06-21T13:58:45.539Z,39.10
2017-06-21T14:01:13.004Z,39.10
2017-06-21T14:03:40.453Z,39.20
2017-06-21T14:06:08.004Z,38.20
2017-06-21T14:08:35.463Z,39.20
2017-06-21T14:11:02.939Z,38.40
2017-06-21T14:13:31.199Z,38.10
2017-06-21T14:15:58.758Z,37.40
2017-06-21T14:18:26.238Z,39.40
2017-06-21T14:20:54.490Z,36.80
2017-06-21T14:23:21.959Z,36.70
2017-06-21T14:25:50.190Z,37.40
2017-06-21T14:28:17.643Z,36.80
2017-06-21T14:30:45.091Z,37.70
2017-06-21T14:33:12.562Z,36.20
2017-06-21T14:35:40.039Z,37.70
2017-06-21T14:38:07.503Z,38.00
2017-06-21T14:40:35.063Z,37.50
2017-06-21T14:43:02.522Z,38.40
2017-06-21T14:45:30.746Z,37.10
2017-06-21T14:47:58.243Z,37.00
2017-06-21T14:50:25.695Z,37.90
2017-06-21T14:52:53.148Z,37.80
2017-06-21T14:55:20.598Z,37.00
2017-06-21T14:57:48.062Z,37.00
2017-06-21T15:00:15.514Z,36.40
2017-06-21T15:02:43.079Z,35.00
2017-06-21T15:05:10.538Z,35.60
2017-06-21T15:10:12.686Z,35.90
2017-06-21T15:12:40.142Z,35.80
2017-06-21T15:15:07.597Z,35.10
2017-06-21T15:17:35.086Z,36.30
2017-06-21T15:20:02.568Z,34.20
2017-06-21T15:22:30.798Z,35.50
2017-06-21T15:24:58.277Z,35.30
2017-06-21T15:27:25.746Z,35.60
2017-06-21T15:29:53.966Z,33.70
2017-06-21T15:32:21.462Z,33.70
2017-06-21T15:34:48.912Z,33.70
2017-06-21T15:37:16.471Z,34.40
2017-06-21T15:39:43.922Z,35.40
2017-06-21T15:42:11.382Z,35.60
2017-06-21T15:44:38.831Z,34.30
2017-06-21T15:47:06.403Z,35.20
2017-06-21T15:49:33.854Z,35.40
2017-06-21T15:52:01.321Z,35.80
2017-06-21T15:54:28.867Z,35.50
2017-06-21T15:57:02.014Z,34.10
2017-06-21T15:59:29.470Z,33.70
2017-06-21T16:01:56.955Z,33.10
2017-06-21T16:04:24.398Z,34.70
2017-06-21T16:06:51.850Z,37.10
2017-06-21T16:09:19.326Z,39.00
2017-06-21T16:11:46.794Z,39.70
2017-06-21T16:14:14.254Z,38.80
2017-06-21T16:16:41.822Z,39.30
2017-06-21T16:19:09.274Z,38.40
2017-06-21T16:21:36.730Z,39.90
2017-06-21T16:24:04.187Z,41.30
2017-06-21T16:26:31.643Z,38.30
2017-06-21T16:28:59.108Z,36.00
2017-06-21T16:31:26.567Z,37.60
2017-06-21T16:33:54.018Z,36.30
2017-06-21T16:36:21.473Z,37.20
2017-06-21T16:38:48.967Z,38.00
2017-06-21T16:41:16.484Z,37.50
2017-06-21T16:43:43.949Z,38.10
2017-06-21T16:46:11.407Z,38.40
2017-06-21T16:48:39.674Z,38.50
2017-06-21T16:51:07.159Z,38.50
2017-06-21T16:53:34.612Z,38.20
2017-06-21T16:56:02.846Z,38.40
2017-06-21T16:58:30.308Z,38.30
2017-06-21T17:00:57.770Z,38.30
2017-06-21T17:03:25.238Z,38.10
2017-06-21T17:05:52.775Z,37.90
2017-06-21T17:08:20.230Z,38.20
2017-06-21T17:10:47.698Z,38.50
2017-06-21T17:13:15.147Z,38.50
2017-06-21T17:15:42.606Z,38.70
2017-06-21T17:18:10.063Z,39.20
2017-06-21T17:20:37.520Z,39.40
2017-06-21T17:23:05.078Z,40.30
2017-06-21T17:25:32.531Z,39.50
2017-06-21T17:28:00.003Z,39.70
2017-06-21T17:30:28.263Z,40.70
2017-06-21T17:32:55.731Z,40.60
2017-06-21T17:35:23.958Z,40.50
2017-06-21T17:37:51.456Z,40.50
2017-06-21T17:40:18.910Z,41.10
2017-06-21T17:42:46.460Z,41.50
2017-06-21T17:45:13.909Z,41.50
2017-06-21T17:47:41.487Z,41.40
2017-06-21T17:50:08.948Z,41.20
2017-06-21T17:52:36.403Z,41.10
2017-06-21T17:55:03.866Z,41.50
2017-06-21T17:57:32.086Z,41.20
2017-06-21T17:59:59.580Z,41.30
2017-06-21T18:02:27.045Z,41.40
2017-06-21T18:04:54.503Z,41.30
2017-06-21T18:07:22.055Z,41.60
2017-06-21T18:09:49.527Z,41.70
2017-06-21T18:12:17.747Z,42.20
2017-06-21T18:14:45.203Z,42.20
2017-06-21T18:17:12.667Z,42.60
2017-06-21T18:19:40.129Z,42.60
2017-06-21T18:22:07.590Z,43.00
2017-06-21T18:24:35.042Z,43.20
2017-06-21T18:27:04.608Z,43.80
2017-06-21T18:29:32.182Z,43.80
2017-06-21T18:31:59.678Z,43.80
2017-06-21T18:34:27.140Z,44.10
2017-06-21T18:36:54.607Z,44.50
2017-06-21T18:39:22.062Z,44.80
2017-06-21T18:41:49.611Z,45.00
2017-06-21T18:44:17.070Z,45.10
2017-06-21T18:46:44.532Z,45.50
2017-06-21T18:49:11.994Z,45.90
2017-06-21T18:51:40.258Z,46.40
2017-06-21T18:54:07.718Z,46.40
2017-06-21T18:56:35.177Z,46.70
2017-06-21T18:59:03.448Z,47.90
2017-06-21T19:01:30.906Z,47.40
2017-06-21T19:03:58.906Z,47.80
2017-06-21T19:06:26.494Z,47.90
2017-06-21T19:08:54.119Z,48.20
2017-06-21T19:11:21.660Z,48.50
2017-06-21T19:13:49.122Z,48.50
2017-06-21T19:16:18.378Z,49.30
2017-06-21T19:18:46.207Z,49.20
2017-06-21T19:21:13.714Z,49.70
2017-06-21T19:23:41.318Z,50.00
2017-06-21T19:26:08.807Z,50.00
2017-06-21T19:28:36.351Z,51.00
2017-06-21T19:31:03.829Z,50.90
2017-06-21T19:33:31.440Z,51.30
2017-06-21T19:36:00.210Z,51.50
2017-06-21T19:38:27.658Z,52.40
2017-06-21T19:40:55.214Z,53.10
2017-06-21T19:43:22.675Z,53.90
2017-06-21T19:45:50.135Z,54.00
2017-06-21T19:48:17.591Z,54.30
2017-06-21T19:50:45.814Z,55.20
2017-06-21T19:53:13.287Z,55.00
2017-06-21T19:55:40.771Z,55.80
2017-06-21T19:58:08.225Z,55.80
2017-06-21T20:00:35.859Z,55.80
2017-06-21T20:03:03.322Z,56.20
2017-06-21T20:05:30.770Z,56.80
2017-06-21T20:07:58.258Z,56.70
2017-06-21T20:10:25.712Z,57.20
2017-06-21T20:12:53.199Z,57.50
2017-06-21T20:15:20.670Z,57.70
2017-06-21T20:17:48.155Z,58.80
2017-06-21T20:20:15.630Z,58.40
2017-06-21T20:22:43.123Z,59.60
2017-06-21T20:25:11.354Z,60.50
2017-06-21T20:27:38.823Z,60.50
2017-06-21T20:30:06.291Z,60.70
2017-06-21T20:32:33.748Z,61.30
2017-06-21T20:35:01.216Z,61.00
2017-06-21T20:37:28.670Z,62.20
2017-06-21T20:39:56.912Z,60.00
2017-06-21T20:42:24.366Z,60.00
2017-06-21T20:44:51.830Z,60.20
2017-06-21T20:47:19.287Z,60.40
2017-06-21T20:49:46.744Z,60.00
2017-06-21T20:52:14.190Z,60.70
2017-06-21T20:54:41.662Z,60.90
2017-06-21T20:57:09.127Z,60.10
2017-06-21T20:59:36.635Z,60.90
2017-06-21T21:02:04.098Z,61.00
2017-06-21T21:04:31.558Z,61.90
2017-06-21T21:06:59.022Z,62.00
2017-06-21T21:09:26.484Z,60.50
2017-06-21T21:11:54.053Z,61.10
2017-06-21T21:14:21.507Z,61.80
2017-06-21T21:16:49.078Z,61.90
2017-06-21T21:19:16.531Z,61.40
2017-06-21T21:21:44.090Z,61.60
2017-06-21T21:24:11.547Z,62.00
2017-06-21T21:26:38.994Z,61.10
2017-06-21T21:29:06.458Z,61.80
2017-06-21T21:31:33.919Z,61.40
2017-06-21T21:34:01.382Z,62.00
2017-06-21T21:36:28.826Z,62.00
2017-06-21T21:38:56.300Z,62.40
2017-06-21T21:41:23.750Z,62.80
2017-06-21T21:43:51.210Z,63.40
2017-06-21T21:46:19.475Z,63.00
2017-06-21T21:48:46.942Z,63.30
2017-06-21T21:51:15.158Z,63.80
2017-06-21T21:53:42.634Z,63.80
2017-06-21T21:56:10.094Z,63.80
2017-06-21T21:58:37.572Z,63.90
2017-06-21T22:02:38.002Z,62.80
2017-06-21T22:05:05.470Z,64.70
2017-06-21T22:07:32.918Z,65.20
2017-06-21T22:10:00.382Z,65.60
2017-06-21T22:12:27.839Z,67.30
2017-06-21T22:14:55.310Z,66.90
2017-06-21T22:17:23.532Z,67.10
2017-06-21T22:19:51.019Z,67.10
2017-06-21T22:22:18.477Z,66.80
2017-06-21T22:24:46.034Z,67.30
2017-06-21T22:27:13.497Z,67.70
2017-06-21T22:29:40.958Z,67.70
2017-06-21T22:32:09.218Z,68.50
2017-06-21T22:34:36.778Z,67.70
2017-06-21T22:37:04.238Z,68.60
2017-06-21T22:39:31.695Z,69.20
2017-06-21T22:41:59.249Z,69.70
2017-06-21T22:44:26.713Z,69.50
2017-06-21T22:46:54.266Z,69.00
2017-06-21T22:49:21.735Z,69.60
2017-06-21T22:51:50.000Z,69.00
2017-06-21T22:54:17.546Z,69.50
2017-06-21T22:56:45.013Z,68.80
2017-06-21T22:59:12.478Z,69.00
2017-06-21T23:01:39.938Z,68.80
2017-06-21T23:04:08.169Z,67.90
2017-06-21T23:06:35.635Z,67.90
2017-06-21T23:09:03.122Z,68.40
2017-06-21T23:11:31.386Z,70.10
2017-06-21T23:13:58.934Z,69.40
2017-06-21T23:16:26.407Z,69.20
2017-06-21T23:18:53.858Z,69.10
2017-06-21T23:21:21.322Z,69.20
2017-06-21T23:23:49.481Z,69.70
2017-06-21T23:26:16.951Z,69.30
2017-06-21T23:28:44.502Z,70.40
2017-06-21T23:31:12.055Z,70.00
2017-06-21T23:33:39.526Z,69.50
2017-06-21T23:36:06.986Z,69.80
2017-06-21T23:38:35.250Z,69.60
2017-06-21T23:41:02.811Z,69.50
2017-06-21T23:43:30.275Z,71.00
2017-06-21T23:45:58.506Z,70.90
2017-06-21T23:48:25.969Z,70.90
2017-06-21T23:50:53.422Z,71.20
2017-06-21T23:53:20.899Z,71.10
2017-06-21T23:55:48.371Z,72.90
2017-06-21T23:58:15.847Z,72.70
